Time;durP1;ratioP1;P1;durP2;ratioP2;P2;SDS_P1;SDS_P2;PMS_P1;PMS_P2;Temp;Humidity;BMP_temperature;BMP_pressure;BME280_temperature;BME280_humidity;BME280_pressure;Samples;Min_cycle;Max_cycle;Signal;HPM_P1;HPM_P2
2021/03/11 00:02:42;;;;;;;16.73;9.65;;;6.10;99.90;;;;;;5026622;28;20049;-70
2021/03/11 00:05:27;;;;;;;14.50;7.40;;;6.10;99.90;;;;;;5026431;28;20044;-70
2021/03/11 00:08:11;;;;;;;18.33;10.50;;;6.20;99.90;;;;;;5015870;28;20582;-70
2021/03/11 00:10:56;;;;;;;17.17;9.77;;;6.20;99.90;;;;;;5019378;28;20044;-70
2021/03/11 00:13:40;;;;;;;16.45;7.10;;;6.10;99.90;;;;;;5020825;28;20427;-71
2021/03/11 00:16:24;;;;;;;16.77;8.60;;;6.20;99.90;;;;;;5020386;28;20055;-71
2021/03/11 00:19:08;;;;;;;15.45;8.55;;;6.20;99.90;;;;;;5017419;28;20057;-71
2021/03/11 00:21:52;;;;;;;17.77;10.40;;;6.20;99.90;;;;;;5020436;28;20052;-71
2021/03/11 00:24:36;;;;;;;18.08;8.98;;;6.20;99.90;;;;;;5019501;28;20569;-71
2021/03/11 00:27:21;;;;;;;19.05;9.80;;;6.30;99.90;;;;;;5018167;28;20478;-71
2021/03/11 00:30:07;;;;;;;17.63;9.75;;;6.20;99.90;;;;;;5025221;28;20073;-71
2021/03/11 00:32:52;;;;;;;16.83;9.23;;;6.40;99.90;;;;;;5017970;28;21855;-71
2021/03/11 00:35:36;;;;;;;17.77;9.02;;;6.40;99.90;;;;;;5025822;28;20438;-71
2021/03/11 00:38:20;;;;;;;17.77;8.90;;;6.40;99.90;;;;;;5031898;28;20521;-70
2021/03/11 00:41:04;;;;;;;19.10;10.52;;;6.60;99.90;;;;;;5024574;28;20053;-70
2021/03/11 00:43:48;;;;;;;21.58;9.27;;;6.60;99.90;;;;;;5014475;28;20088;-70
2021/03/11 00:46:33;;;;;;;16.10;8.30;;;6.60;99.90;;;;;;5025773;28;20084;-71
2021/03/11 00:49:17;;;;;;;20.38;10.25;;;6.60;99.90;;;;;;5032627;28;20061;-71
2021/03/11 00:52:03;;;;;;;15.60;9.68;;;6.60;99.90;;;;;;5026869;28;20091;-71
2021/03/11 00:54:47;;;;;;;18.13;10.20;;;6.60;99.90;;;;;;5017808;28;20040;-71
2021/03/11 00:57:31;;;;;;;20.45;8.95;;;6.70;99.90;;;;;;5022022;28;20045;-70
2021/03/11 01:00:19;;;;;;;21.10;9.70;;;6.80;99.90;;;;;;5015180;28;20090;-71
2021/03/11 01:03:03;;;;;;;16.25;7.78;;;6.80;99.90;;;;;;5015646;28;20522;-71
2021/03/11 01:05:48;;;;;;;19.25;9.23;;;6.90;99.90;;;;;;5024913;28;20039;-71
2021/03/11 01:08:32;;;;;;;16.48;8.82;;;7.00;99.90;;;;;;5017183;28;20419;-70
2021/03/11 01:11:17;;;;;;;13.88;7.47;;;6.90;99.90;;;;;;5019543;28;20044;-71
2021/03/11 01:14:01;;;;;;;17.73;8.70;;;6.90;99.90;;;;;;5013648;28;20053;-71
2021/03/11 01:16:50;;;;;;;18.77;10.60;;;7.00;99.90;;;;;;5024386;28;20036;-71
2021/03/11 01:19:35;;;;;;;20.73;11.35;;;7.00;99.90;;;;;;5021434;28;20107;-70
2021/03/11 01:22:19;;;;;;;18.67;10.20;;;7.10;99.90;;;;;;5024001;28;20095;-71
2021/03/11 01:25:04;;;;;;;20.23;10.40;;;7.10;99.90;;;;;;5020022;28;20131;-71
2021/03/11 01:27:49;;;;;;;17.23;9.43;;;7.10;99.90;;;;;;5027664;28;20084;-71
2021/03/11 01:30:33;;;;;;;18.10;8.07;;;7.20;99.90;;;;;;5017860;28;20092;-71
2021/03/11 01:33:17;;;;;;;15.45;8.25;;;7.20;99.90;;;;;;5023941;28;20092;-71
2021/03/11 01:36:01;;;;;;;19.05;8.88;;;7.30;99.90;;;;;;5024907;28;20431;-71
2021/03/11 01:38:46;;;;;;;18.45;8.98;;;7.30;99.90;;;;;;5024124;28;20048;-71
2021/03/11 01:41:30;;;;;;;15.30;8.32;;;7.30;99.90;;;;;;5012989;28;20073;-70
2021/03/11 01:44:14;;;;;;;13.25;6.85;;;7.50;99.90;;;;;;5013388;28;20139;-70
2021/03/11 01:46:59;;;;;;;19.95;8.88;;;7.40;99.90;;;;;;5018818;28;20045;-71
2021/03/11 01:49:43;;;;;;;18.13;9.50;;;7.40;99.90;;;;;;5024172;28;20132;-71
2021/03/11 01:52:27;;;;;;;14.07;7.30;;;7.40;99.90;;;;;;5015745;28;20040;-71
2021/03/11 01:55:13;;;;;;;15.68;8.43;;;7.40;99.90;;;;;;5021547;28;20064;-70
2021/03/11 01:57:58;;;;;;;17.20;7.15;;;7.40;99.90;;;;;;5025283;28;20044;-71
2021/03/11 02:00:42;;;;;;;21.35;9.20;;;7.40;99.90;;;;;;5022892;28;20048;-71
2021/03/11 02:03:26;;;;;;;14.90;7.65;;;7.40;99.90;;;;;;5023870;28;20115;-71
2021/03/11 02:06:11;;;;;;;17.95;9.93;;;7.40;99.90;;;;;;5021401;28;20411;-71
2021/03/11 02:08:55;;;;;;;15.13;8.98;;;7.40;99.90;;;;;;5024226;28;20564;-71
2021/03/11 02:11:47;;;;;;;19.20;8.88;;;7.40;99.90;;;;;;5021550;28;20096;-71
2021/03/11 02:14:47;;;;;;;14.60;8.02;;;7.40;99.90;;;;;;5076326;27;20928;-70
2021/03/11 02:17:39;;;;;;;12.02;6.43;;;7.50;99.90;;;;;;5059100;28;20056;-70
2021/03/11 02:20:38;;;;;;;15.27;8.02;;;7.50;99.90;;;;;;5063027;28;20092;-70
2021/03/11 02:23:29;;;;;;;16.50;7.72;;;7.40;99.90;;;;;;5074128;28;20086;-70
2021/03/11 02:26:32;;;;;;;14.63;7.97;;;7.50;99.90;;;;;;5069313;28;20612;-70
2021/03/11 02:29:20;;;;;;;12.13;6.60;;;7.50;99.90;;;;;;5058545;28;20551;-70
2021/03/11 02:32:09;;;;;;;13.05;6.88;;;7.60;99.90;;;;;;5060396;28;20406;-71
2021/03/11 02:34:59;;;;;;;19.33;7.57;;;7.60;99.90;;;;;;5062442;28;20053;-70
2021/03/11 02:37:50;;;;;;;12.07;6.55;;;7.50;99.90;;;;;;5060103;28;20580;-70
2021/03/11 02:40:36;;;;;;;13.65;7.75;;;7.50;99.90;;;;;;5055113;28;20124;-70
2021/03/11 02:43:21;;;;;;;19.80;7.93;;;7.50;99.90;;;;;;5068359;28;20132;-70
2021/03/11 02:46:06;;;;;;;12.05;6.13;;;7.20;99.90;;;;;;5062358;28;20067;-70
2021/03/11 02:48:52;;;;;;;17.48;7.60;;;7.10;99.90;;;;;;5066315;28;20414;-69
2021/03/11 02:51:37;;;;;;;14.50;8.52;;;6.80;99.90;;;;;;5067118;28;20410;-69
2021/03/11 02:54:23;;;;;;;14.05;7.95;;;6.70;99.90;;;;;;5076107;28;20528;-69
2021/03/11 02:57:11;;;;;;;14.20;7.35;;;6.70;99.90;;;;;;5048409;28;20098;-70
2021/03/11 02:59:56;;;;;;;17.30;6.68;;;6.80;99.90;;;;;;5074626;28;20090;-69
2021/03/11 03:02:42;;;;;;;15.80;7.72;;;6.90;99.90;;;;;;5056571;28;20046;-69
2021/03/11 03:05:29;;;;;;;15.65;7.68;;;7.00;99.90;;;;;;5067613;28;20051;-70
2021/03/11 03:08:16;;;;;;;13.35;6.47;;;7.00;99.90;;;;;;5065706;28;20067;-70
2021/03/11 03:11:01;;;;;;;12.77;7.03;;;7.10;99.90;;;;;;5063832;28;20053;-69
2021/03/11 03:13:45;;;;;;;18.88;7.03;;;7.20;99.90;;;;;;5067772;28;20055;-69
2021/03/11 03:16:29;;;;;;;15.13;7.63;;;7.20;99.90;;;;;;5060642;28;20047;-69
2021/03/11 03:19:15;;;;;;;12.65;6.90;;;7.20;99.90;;;;;;5079118;28;20063;-70
2021/03/11 03:21:59;;;;;;;11.65;6.88;;;7.20;99.90;;;;;;5061853;28;20040;-70
2021/03/11 03:24:45;;;;;;;15.57;5.75;;;7.30;99.90;;;;;;5058980;28;20105;-69
2021/03/11 03:27:29;;;;;;;13.00;6.63;;;7.40;99.90;;;;;;5054313;28;20627;-70
2021/03/11 03:30:17;;;;;;;15.45;5.65;;;7.40;99.90;;;;;;5052635;28;20152;-70
2021/03/11 03:33:01;;;;;;;13.13;6.28;;;7.50;99.90;;;;;;5051030;28;20391;-70
2021/03/11 03:35:47;;;;;;;19.20;8.18;;;7.30;99.90;;;;;;5053378;28;20043;-70
2021/03/11 03:38:32;;;;;;;13.85;5.65;;;7.20;99.90;;;;;;5058915;28;20418;-69
2021/03/11 03:41:17;;;;;;;14.13;6.82;;;7.20;99.90;;;;;;5051146;28;20102;-70
2021/03/11 03:44:03;;;;;;;11.60;5.70;;;7.20;99.90;;;;;;5053451;28;20437;-70
2021/03/11 03:46:49;;;;;;;12.50;6.65;;;7.30;99.90;;;;;;5050691;28;20099;-69
2021/03/11 03:49:34;;;;;;;16.73;7.10;;;7.30;99.90;;;;;;5050246;28;20134;-70
2021/03/11 03:52:20;;;;;;;13.98;5.95;;;7.30;99.90;;;;;;5051743;28;20466;-69
2021/03/11 03:55:06;;;;;;;12.68;7.05;;;7.40;99.90;;;;;;5057339;28;20111;-69
2021/03/11 03:57:54;;;;;;;13.35;6.72;;;7.40;99.90;;;;;;5051385;28;20055;-69
2021/03/11 04:00:40;;;;;;;12.88;5.55;;;7.40;99.90;;;;;;5050013;28;20106;-69
2021/03/11 04:03:26;;;;;;;14.20;5.97;;;7.30;99.90;;;;;;5045384;28;20047;-69
2021/03/11 04:06:12;;;;;;;16.05;8.05;;;7.20;99.90;;;;;;5044936;28;20063;-69
2021/03/11 04:08:58;;;;;;;18.20;7.68;;;7.10;99.90;;;;;;5061838;28;20397;-70
2021/03/11 04:11:44;;;;;;;14.07;7.15;;;7.00;99.90;;;;;;5059125;28;20057;-69
2021/03/11 04:14:30;;;;;;;15.63;8.77;;;7.00;99.90;;;;;;5038748;28;20166;-70
2021/03/11 04:17:15;;;;;;;13.77;7.43;;;6.80;99.90;;;;;;5047882;28;20082;-69
2021/03/11 04:20:05;;;;;;;15.30;7.60;;;6.70;99.90;;;;;;5044313;28;20095;-70
2021/03/11 04:22:50;;;;;;;18.63;8.52;;;6.50;99.90;;;;;;5040162;28;20048;-69
2021/03/11 04:25:35;;;;;;;14.93;8.00;;;6.50;99.90;;;;;;5049033;28;20521;-70
2021/03/11 04:28:20;;;;;;;16.77;8.48;;;6.50;99.90;;;;;;5049182;28;20053;-69
2021/03/11 04:31:05;;;;;;;19.05;10.65;;;6.40;99.90;;;;;;5051659;28;20043;-70
2021/03/11 04:33:51;;;;;;;18.50;9.35;;;6.30;99.90;;;;;;5045662;28;20048;-70
2021/03/11 04:36:36;;;;;;;24.20;8.40;;;6.30;99.90;;;;;;5042148;28;20410;-69
2021/03/11 04:39:22;;;;;;;19.30;9.73;;;6.20;99.90;;;;;;5041277;28;20040;-69
2021/03/11 04:42:06;;;;;;;18.23;8.95;;;6.10;99.90;;;;;;5047450;28;20098;-70
2021/03/11 04:44:51;;;;;;;16.75;8.18;;;6.10;99.90;;;;;;5050432;28;20094;-69
2021/03/11 04:47:37;;;;;;;24.33;11.90;;;6.10;99.90;;;;;;5051286;28;20044;-70
2021/03/11 04:50:22;;;;;;;16.20;8.30;;;6.00;99.90;;;;;;5044939;28;20055;-70
2021/03/11 04:53:07;;;;;;;22.98;11.70;;;6.10;99.90;;;;;;5044480;28;21682;-69
2021/03/11 04:55:51;;;;;;;22.55;10.45;;;6.10;99.90;;;;;;5045574;28;20090;-70
2021/03/11 04:58:40;;;;;;;16.73;9.25;;;6.10;99.90;;;;;;5057902;28;20599;-70
2021/03/11 05:01:29;;;;;;;16.58;7.72;;;6.10;99.90;;;;;;5048820;28;20175;-69
2021/03/11 05:04:14;;;;;;;18.08;8.85;;;6.30;99.90;;;;;;5044550;28;20071;-70
2021/03/11 05:06:58;;;;;;;16.33;7.18;;;6.40;99.90;;;;;;5048993;28;20094;-70
2021/03/11 05:09:42;;;;;;;13.65;6.13;;;6.50;99.90;;;;;;5046989;28;20114;-69
2021/03/11 05:12:26;;;;;;;17.27;7.22;;;6.60;99.90;;;;;;5038919;28;20494;-69
2021/03/11 05:15:11;;;;;;;15.15;7.10;;;6.70;99.90;;;;;;5041075;28;20072;-70
2021/03/11 05:17:55;;;;;;;21.35;8.30;;;6.70;99.90;;;;;;5049726;28;20082;-69
2021/03/11 05:20:39;;;;;;;13.93;6.60;;;6.70;99.90;;;;;;5047045;28;20674;-70
2021/03/11 05:23:23;;;;;;;17.60;8.05;;;6.80;99.90;;;;;;5040060;28;20099;-69
2021/03/11 05:26:07;;;;;;;16.50;7.38;;;6.70;99.90;;;;;;5050523;28;20413;-69
2021/03/11 05:28:52;;;;;;;16.75;8.27;;;6.60;99.90;;;;;;5044081;28;20043;-69
2021/03/11 05:31:36;;;;;;;18.83;7.45;;;6.50;99.90;;;;;;5046902;28;20048;-69
2021/03/11 05:34:20;;;;;;;12.88;6.20;;;6.40;99.90;;;;;;5049075;28;20052;-69
2021/03/11 05:37:04;;;;;;;14.60;8.48;;;6.40;99.90;;;;;;5039953;28;20048;-69
2021/03/11 05:39:49;;;;;;;20.05;8.18;;;6.40;99.90;;;;;;5041870;28;20458;-69
2021/03/11 05:42:34;;;;;;;12.80;6.75;;;6.30;99.90;;;;;;5043327;28;20047;-70
2021/03/11 05:45:19;;;;;;;15.30;7.60;;;6.30;99.90;;;;;;5057847;28;20049;-70
2021/03/11 05:48:05;;;;;;;14.10;7.75;;;6.30;99.90;;;;;;5047582;28;20417;-70
2021/03/11 05:50:51;;;;;;;17.17;7.38;;;6.20;99.90;;;;;;5040414;28;20163;-69
2021/03/11 05:53:39;;;;;;;16.85;8.65;;;6.20;99.90;;;;;;5045035;28;20465;-69
2021/03/11 05:56:24;;;;;;;18.50;9.45;;;6.20;99.90;;;;;;5043155;28;20145;-70
2021/03/11 05:59:09;;;;;;;15.07;8.13;;;6.20;99.90;;;;;;5047171;28;20063;-70
2021/03/11 06:01:54;;;;;;;14.93;7.43;;;6.20;99.90;;;;;;5044005;28;20112;-69
2021/03/11 06:04:39;;;;;;;16.15;8.93;;;6.20;99.90;;;;;;5060161;28;20554;-70
2021/03/11 06:07:25;;;;;;;16.58;6.68;;;6.20;99.90;;;;;;5048782;28;20524;-70
2021/03/11 06:10:11;;;;;;;15.27;8.40;;;6.20;99.90;;;;;;5048358;28;20169;-69
2021/03/11 06:12:56;;;;;;;15.10;8.05;;;6.20;99.90;;;;;;5065555;28;20504;-69
2021/03/11 06:15:42;;;;;;;15.32;7.10;;;6.30;99.90;;;;;;5051865;28;20044;-69
2021/03/11 06:18:30;;;;;;;17.58;8.32;;;6.30;99.90;;;;;;5041670;28;20084;-69
2021/03/11 06:21:15;;;;;;;17.92;8.43;;;6.20;99.90;;;;;;5050304;28;20054;-69
2021/03/11 06:23:59;;;;;;;15.10;6.07;;;6.30;99.90;;;;;;5060632;28;20082;-70
2021/03/11 06:26:43;;;;;;;17.27;9.65;;;6.30;99.90;;;;;;5041884;28;20043;-70
2021/03/11 06:29:35;;;;;;;17.50;9.15;;;6.30;99.90;;;;;;5052186;28;20463;-70
2021/03/11 06:32:19;;;;;;;17.25;8.88;;;6.30;99.90;;;;;;5040574;28;20137;-70
2021/03/11 06:35:18;;;;;;;17.95;8.30;;;6.30;99.90;;;;;;5047419;28;20132;-70
2021/03/11 06:38:03;;;;;;;18.85;9.25;;;6.30;99.90;;;;;;5041234;28;20040;-69
2021/03/11 06:40:53;;;;;;;18.83;8.00;;;6.30;99.90;;;;;;5045277;28;20458;-69
2021/03/11 06:43:53;;;;;;;22.38;10.95;;;6.30;99.90;;;;;;5049158;28;20055;-69
2021/03/11 06:46:37;;;;;;;16.30;7.57;;;6.40;99.90;;;;;;5045131;28;20572;-69
2021/03/11 06:49:22;;;;;;;17.23;9.10;;;6.40;99.90;;;;;;5060731;28;20063;-69
2021/03/11 06:52:10;;;;;;;15.35;7.35;;;6.40;99.90;;;;;;5052741;28;20063;-69
2021/03/11 06:54:54;;;;;;;18.42;8.43;;;6.60;99.90;;;;;;5045029;28;20043;-69
2021/03/11 06:57:40;;;;;;;11.32;5.65;;;6.60;99.90;;;;;;5054118;28;20036;-69
2021/03/11 07:00:24;;;;;;;13.60;6.63;;;6.70;99.90;;;;;;5054204;28;20096;-70
2021/03/11 07:03:09;;;;;;;12.02;6.15;;;6.70;99.90;;;;;;5034448;28;20048;-69
2021/03/11 07:05:53;;;;;;;16.77;6.72;;;6.70;99.90;;;;;;5039603;28;20047;-69
2021/03/11 07:08:50;;;;;;;16.88;8.27;;;6.70;99.90;;;;;;5058666;28;20132;-69
2021/03/11 07:11:34;;;;;;;12.95;6.28;;;6.70;99.90;;;;;;5051557;28;20079;-69
2021/03/11 07:14:26;;;;;;;10.95;6.13;;;6.70;99.90;;;;;;5049613;28;20113;-70
2021/03/11 07:17:24;;;;;;;12.63;6.35;;;6.90;99.90;;;;;;5045713;28;20060;-69
2021/03/11 07:20:17;;;;;;;14.25;6.35;;;7.00;99.90;;;;;;5037084;28;20039;-69
2021/03/11 07:23:09;;;;;;;13.13;6.53;;;6.90;99.90;;;;;;5050492;28;20047;-69
2021/03/11 07:25:54;;;;;;;15.45;8.48;;;7.00;99.90;;;;;;5065166;28;20059;-69
2021/03/11 07:28:38;;;;;;;16.60;9.38;;;7.00;99.90;;;;;;5048419;28;20117;-69
2021/03/11 07:31:29;;;;;;;12.02;6.68;;;7.00;99.90;;;;;;5040306;28;20079;-69
2021/03/11 07:34:13;;;;;;;16.27;7.35;;;7.00;99.90;;;;;;5046929;28;20052;-69
2021/03/11 07:36:59;;;;;;;15.43;7.35;;;7.10;99.90;;;;;;5038582;28;20099;-69
2021/03/11 07:39:45;;;;;;;15.60;6.82;;;7.10;99.90;;;;;;5037517;28;20421;-69
2021/03/11 07:42:29;;;;;;;16.73;6.28;;;7.20;99.90;;;;;;5034023;28;20140;-69
2021/03/11 07:45:14;;;;;;;14.68;7.38;;;7.20;99.90;;;;;;5039816;28;20064;-69
2021/03/11 07:48:02;;;;;;;16.48;7.80;;;7.20;99.90;;;;;;5046397;28;20082;-69
2021/03/11 07:50:46;;;;;;;12.60;6.65;;;7.30;99.90;;;;;;5046060;28;20044;-70
2021/03/11 07:53:31;;;;;;;15.60;5.90;;;7.20;99.90;;;;;;5035079;28;20047;-69
2021/03/11 07:56:15;;;;;;;15.15;7.07;;;7.20;99.90;;;;;;5044951;28;20052;-69
2021/03/11 07:59:04;;;;;;;18.67;10.45;;;7.20;99.90;;;;;;5040775;28;20040;-69
2021/03/11 08:01:54;;;;;;;17.05;7.93;;;7.20;99.90;;;;;;5030720;28;20052;-69
2021/03/11 08:04:43;;;;;;;15.15;7.38;;;7.30;99.90;;;;;;5041610;28;20044;-69
2021/03/11 08:07:28;;;;;;;15.15;7.95;;;7.30;99.90;;;;;;5043376;28;20128;-69
2021/03/11 08:10:20;;;;;;;14.57;6.80;;;7.40;99.90;;;;;;5045033;28;20344;-69
2021/03/11 08:13:32;;;;;;;13.35;5.60;;;7.50;99.90;;;;;;5033446;28;20570;-70
2021/03/11 08:16:16;;;;;;;21.45;8.80;;;7.50;99.90;;;;;;5043181;28;20181;-69
2021/03/11 08:19:00;;;;;;;17.05;7.90;;;7.50;99.90;;;;;;5050023;28;20414;-69
2021/03/11 08:21:45;;;;;;;13.27;7.35;;;7.60;99.90;;;;;;5051276;28;20128;-70
2021/03/11 08:24:43;;;;;;;11.20;6.07;;;7.50;99.90;;;;;;5047535;28;20124;-69
2021/03/11 08:27:30;;;;;;;19.27;8.85;;;7.60;99.90;;;;;;5040978;28;20063;-68
2021/03/11 08:33:26;;;;;;;11.15;6.10;;;7.70;99.90;;;;;;5043505;28;20048;-69
2021/03/11 08:36:25;;;;;;;17.08;8.65;;;7.70;99.90;;;;;;5042440;28;20490;-69
2021/03/11 08:39:31;;;;;;;12.70;6.35;;;7.70;99.90;;;;;;5035909;28;20052;-69
2021/03/11 08:42:49;;;;;;;18.23;8.55;;;7.70;99.90;;;;;;5041213;28;20072;-68
2021/03/11 08:45:37;;;;;;;14.15;6.15;;;7.70;99.90;;;;;;5042477;28;20051;-68
2021/03/11 08:48:23;;;;;;;15.70;7.30;;;7.80;99.90;;;;;;5047215;28;20383;-69
2021/03/11 08:51:17;;;;;;;12.57;5.97;;;7.90;99.90;;;;;;5033616;28;20175;-69
2021/03/11 08:54:21;;;;;;;18.05;9.57;;;7.90;99.90;;;;;;5040181;28;20052;-68
2021/03/11 08:57:05;;;;;;;;;;;7.90;99.90;;;;;;5035974;28;20036;-68
2021/03/11 08:59:50;;;;;;;14.85;8.57;;;7.90;99.90;;;;;;5040896;28;19990;-69
2021/03/11 09:02:35;;;;;;;12.90;7.53;;;7.90;99.90;;;;;;5041270;28;20115;-69
2021/03/11 09:05:48;;;;;;;13.15;6.78;;;7.90;99.90;;;;;;5043829;28;20044;-69
2021/03/11 09:08:43;;;;;;;15.30;8.20;;;7.90;99.90;;;;;;5041156;28;20048;-69
2021/03/11 09:11:27;;;;;;;13.95;5.80;;;7.80;99.90;;;;;;5041306;28;20084;-70
2021/03/11 09:14:12;;;;;;;17.30;7.45;;;7.90;99.90;;;;;;5038528;28;20048;-69
2021/03/11 09:17:10;;;;;;;11.20;6.32;;;8.00;99.90;;;;;;5032398;28;20067;-69
2021/03/11 09:20:13;;;;;;;12.48;6.05;;;8.00;99.90;;;;;;5041010;28;20147;-69
2021/03/11 09:22:58;;;;;;;13.15;6.50;;;8.00;99.90;;;;;;5035976;28;20417;-69
2021/03/11 09:25:42;;;;;;;11.70;6.55;;;7.90;99.90;;;;;;5046879;28;20043;-69
2021/03/11 09:28:26;;;;;;;13.32;5.82;;;7.90;99.90;;;;;;5036159;28;20134;-69
2021/03/11 09:31:22;;;;;;;12.05;6.43;;;8.00;99.90;;;;;;5034212;28;20051;-69
2021/03/11 09:34:07;;;;;;;14.25;7.57;;;8.00;99.90;;;;;;5038885;28;20132;-69
2021/03/11 09:36:51;;;;;;;15.77;8.48;;;7.90;99.90;;;;;;5038372;28;20091;-69
2021/03/11 09:39:35;;;;;;;21.10;8.45;;;8.00;99.90;;;;;;5030857;28;20087;-68
2021/03/11 09:42:19;;;;;;;13.80;7.75;;;8.00;99.90;;;;;;5035173;28;20053;-69
2021/03/11 09:45:04;;;;;;;12.18;5.53;;;8.10;99.90;;;;;;5038748;28;20052;-68
2021/03/11 09:47:48;;;;;;;11.32;6.32;;;8.10;99.90;;;;;;5035642;28;20056;-69
2021/03/11 09:50:33;;;;;;;12.20;6.40;;;8.10;99.90;;;;;;5037901;28;20059;-69
2021/03/11 09:53:18;;;;;;;10.32;5.63;;;8.10;99.90;;;;;;5030328;28;20497;-69
2021/03/11 09:56:04;;;;;;;7.25;4.10;;;8.20;99.90;;;;;;5029596;28;20112;-69
2021/03/11 09:58:53;;;;;;;15.07;6.80;;;8.20;99.90;;;;;;5034781;28;20182;-69
2021/03/11 10:01:42;;;;;;;12.02;6.45;;;8.20;99.90;;;;;;5034334;28;20131;-69
2021/03/11 10:04:30;;;;;;;8.82;3.97;;;8.30;99.90;;;;;;5035233;28;20130;-69
2021/03/11 10:07:14;;;;;;;6.70;3.85;;;8.40;99.90;;;;;;5035069;28;20040;-69
2021/03/11 10:09:58;;;;;;;8.00;4.00;;;8.40;99.90;;;;;;5037341;28;20493;-68
2021/03/11 10:12:43;;;;;;;9.65;5.35;;;8.40;99.90;;;;;;5040354;28;20449;-68
2021/03/11 10:15:27;;;;;;;9.90;3.88;;;8.50;99.90;;;;;;5037378;28;20075;-69
2021/03/11 10:18:11;;;;;;;7.28;3.40;;;8.50;99.90;;;;;;5035109;28;20052;-69
2021/03/11 10:21:00;;;;;;;8.60;4.32;;;8.60;99.90;;;;;;5029470;28;20130;-69
2021/03/11 10:23:50;;;;;;;5.20;2.88;;;8.70;99.90;;;;;;5030378;28;20074;-69
2021/03/11 10:26:35;;;;;;;8.30;4.25;;;8.70;99.90;;;;;;5029539;28;20060;-68
2021/03/11 10:29:20;;;;;;;9.38;3.47;;;8.70;99.90;;;;;;5038634;28;20537;-69
2021/03/11 10:32:06;;;;;;;9.15;3.72;;;8.80;99.90;;;;;;5037727;28;20843;-69
2021/03/11 10:34:50;;;;;;;9.88;3.42;;;8.70;99.90;;;;;;5034371;28;20047;-69
2021/03/11 10:37:40;;;;;;;7.50;4.15;;;8.70;99.90;;;;;;5040014;28;20040;-68
2021/03/11 10:40:26;;;;;;;6.75;2.70;;;8.70;99.90;;;;;;5045175;28;20441;-69
2021/03/11 10:43:32;;;;;;;6.30;3.63;;;8.80;99.90;;;;;;5048064;28;20080;-69
2021/03/11 10:46:18;;;;;;;6.05;3.50;;;8.80;99.90;;;;;;5037379;28;20390;-68
2021/03/11 10:49:03;;;;;;;5.28;3.17;;;8.90;99.90;;;;;;5043455;28;20071;-69
2021/03/11 10:51:58;;;;;;;7.55;3.65;;;8.90;99.90;;;;;;5036011;28;20049;-68
2021/03/11 10:54:42;;;;;;;8.02;3.67;;;9.00;99.90;;;;;;5037962;28;20149;-69
2021/03/11 10:57:35;;;;;;;6.38;3.13;;;9.00;99.90;;;;;;5031420;28;20064;-69
2021/03/11 11:00:25;;;;;;;5.47;3.35;;;9.10;99.90;;;;;;5033813;28;20091;-69
2021/03/11 11:03:09;;;;;;;4.80;2.63;;;9.20;99.90;;;;;;5032556;28;20068;-69
2021/03/11 11:05:54;;;;;;;6.75;3.17;;;9.30;99.90;;;;;;5046281;28;20103;-70
2021/03/11 11:08:42;;;;;;;5.57;3.25;;;9.20;99.90;;;;;;5040186;28;20525;-69
2021/03/11 11:11:27;;;;;;;9.77;3.90;;;9.20;99.90;;;;;;5032398;28;20171;-69
2021/03/11 11:14:11;;;;;;;4.97;3.28;;;9.40;99.90;;;;;;5032040;28;20040;-68
2021/03/11 11:16:55;;;;;;;4.78;2.40;;;9.70;99.90;;;;;;5042038;28;20583;-69
2021/03/11 11:19:41;;;;;;;4.78;2.25;;;10.00;99.90;;;;;;5038532;28;20123;-69
2021/03/11 11:22:25;;;;;;;3.40;2.30;;;10.00;99.90;;;;;;5044960;28;20080;-69
2021/03/11 11:25:10;;;;;;;8.10;2.58;;;9.70;99.90;;;;;;5039013;28;20083;-69
2021/03/11 11:27:54;;;;;;;5.53;2.45;;;9.80;99.90;;;;;;5046347;28;20051;-69
2021/03/11 11:30:39;;;;;;;4.22;2.40;;;9.70;99.90;;;;;;5038791;28;20044;-69
2021/03/11 11:33:23;;;;;;;5.72;3.00;;;9.70;99.90;;;;;;5041284;28;20076;-69
2021/03/11 11:36:08;;;;;;;4.03;1.98;;;9.50;99.90;;;;;;5038570;28;20516;-69
2021/03/11 11:38:52;;;;;;;4.82;3.03;;;9.40;99.90;;;;;;5043979;28;20084;-68
2021/03/11 11:41:41;;;;;;;5.80;2.80;;;9.30;99.90;;;;;;4933284;28;20528;-69
2021/03/11 11:44:25;;;;;;;5.35;3.08;;;9.30;99.90;;;;;;5009556;28;20052;-69
2021/03/11 11:47:10;;;;;;;5.28;3.13;;;9.40;99.90;;;;;;5047138;28;20128;-69
2021/03/11 11:49:54;;;;;;;5.75;2.65;;;9.50;99.90;;;;;;5040183;28;20052;-68
2021/03/11 11:52:38;;;;;;;5.90;3.28;;;9.60;99.90;;;;;;5044794;28;20100;-68
2021/03/11 11:55:23;;;;;;;8.15;4.00;;;9.70;99.90;;;;;;5043101;28;20095;-68
2021/03/11 11:58:07;;;;;;;6.10;1.90;;;9.80;99.90;;;;;;5042409;28;20509;-69
2021/03/11 12:00:51;;;;;;;3.83;2.13;;;9.80;99.90;;;;;;5043307;28;20044;-68
2021/03/11 12:03:35;;;;;;;4.80;2.13;;;10.00;99.90;;;;;;5037145;28;20425;-68
2021/03/11 12:06:19;;;;;;;3.72;1.80;;;10.30;99.90;;;;;;5042335;28;20053;-68
2021/03/11 12:09:03;;;;;;;5.82;2.05;;;10.70;99.90;;;;;;5037109;28;20044;-68
2021/03/11 12:11:47;;;;;;;4.65;2.05;;;10.60;99.90;;;;;;5045561;28;20087;-68
2021/03/11 12:14:32;;;;;;;6.18;2.00;;;10.80;99.90;;;;;;5041651;28;20044;-69
2021/03/11 12:17:16;;;;;;;6.50;2.80;;;10.80;99.90;;;;;;5040878;28;20120;-68
2021/03/11 12:20:01;;;;;;;11.43;2.17;;;11.00;99.90;;;;;;5043085;28;20249;-70
2021/03/11 12:22:45;;;;;;;4.60;1.98;;;11.20;99.90;;;;;;5044849;28;20137;-69
2021/03/11 12:25:30;;;;;;;4.63;2.05;;;11.30;99.90;;;;;;5041717;28;20044;-69
2021/03/11 12:28:14;;;;;;;3.30;1.05;;;11.60;99.90;;;;;;5033406;28;20064;-69
2021/03/11 12:30:58;;;;;;;3.55;1.30;;;11.80;99.90;;;;;;5037594;28;20413;-69
2021/03/11 12:33:46;;;;;;;3.67;1.13;;;11.70;99.90;;;;;;5034822;28;20702;-69
2021/03/11 12:36:30;;;;;;;6.65;1.20;;;11.50;99.90;;;;;;5037473;28;20083;-68
2021/03/11 12:39:14;;;;;;;3.75;1.00;;;11.10;99.90;;;;;;5031429;28;20044;-69
2021/03/11 12:41:59;;;;;;;1.48;0.77;;;10.80;99.90;;;;;;5042877;28;20040;-69
2021/03/11 12:44:43;;;;;;;5.63;1.20;;;10.60;99.90;;;;;;5037410;28;20086;-69
2021/03/11 12:47:27;;;;;;;3.38;1.30;;;10.20;99.90;;;;;;5032089;28;20048;-69
2021/03/11 12:50:15;;;;;;;4.60;2.05;;;9.90;99.90;;;;;;5039006;28;20091;-69
2021/03/11 12:52:59;;;;;;;6.65;2.15;;;9.70;99.90;;;;;;5040585;28;20199;-69
2021/03/11 12:55:44;;;;;;;6.05;2.28;;;9.50;99.90;;;;;;5042736;28;20356;-68
2021/03/11 12:58:29;;;;;;;11.95;2.92;;;9.50;99.90;;;;;;5037810;28;20039;-69
2021/03/11 13:01:13;;;;;;;5.38;1.35;;;9.40;99.90;;;;;;5042797;28;20158;-69
2021/03/11 13:03:57;;;;;;;2.13;0.90;;;9.40;99.90;;;;;;5038866;28;20047;-69
2021/03/11 13:06:42;;;;;;;4.43;0.70;;;9.60;99.90;;;;;;5030575;28;20063;-69
2021/03/11 13:09:26;;;;;;;2.55;0.90;;;10.00;99.90;;;;;;5033546;28;20079;-69
2021/03/11 13:12:11;;;;;;;2.78;0.60;;;10.10;99.90;;;;;;5036645;28;20559;-69
2021/03/11 13:14:55;;;;;;;1.60;0.68;;;10.30;99.90;;;;;;5030494;28;20044;-69
2021/03/11 13:17:40;;;;;;;1.17;0.68;;;10.30;99.90;;;;;;5031043;28;20143;-69
2021/03/11 13:20:24;;;;;;;0.77;0.50;;;10.30;99.90;;;;;;5034777;28;20103;-69
2021/03/11 13:23:08;;;;;;;2.13;0.70;;;10.80;99.90;;;;;;5039972;28;20464;-69
2021/03/11 13:25:53;;;;;;;5.97;0.88;;;11.10;99.90;;;;;;5036541;28;20500;-69
2021/03/11 13:28:38;;;;;;;4.28;0.70;;;11.40;99.90;;;;;;5036914;28;20076;-69
2021/03/11 13:31:22;;;;;;;3.40;1.00;;;12.00;99.90;;;;;;5049634;28;20457;-69
2021/03/11 13:34:06;;;;;;;4.53;0.93;;;11.80;99.90;;;;;;5047347;28;20040;-69
2021/03/11 13:36:51;;;;;;;2.88;1.20;;;11.20;99.90;;;;;;5040850;28;20043;-68
2021/03/11 13:39:34;;;;;;;6.00;1.92;;;10.80;99.90;;;;;;5031949;28;20052;-69
2021/03/11 13:42:22;;;;;;;3.30;1.35;;;10.70;99.90;;;;;;5035263;28;20052;-69
2021/03/11 13:45:07;;;;;;;7.13;1.70;;;10.80;99.90;;;;;;5042266;28;20120;-69
2021/03/11 13:47:52;;;;;;;5.03;1.58;;;10.70;99.90;;;;;;5038352;28;20093;-69
2021/03/11 13:50:36;;;;;;;5.13;1.40;;;10.90;99.90;;;;;;5042370;28;20048;-69
2021/03/11 13:53:20;;;;;;;3.90;1.85;;;11.00;99.90;;;;;;5034688;28;20375;-69
2021/03/11 13:56:05;;;;;;;4.57;1.65;;;11.10;99.90;;;;;;5043830;28;20056;-69
2021/03/11 13:58:49;;;;;;;7.32;1.83;;;11.10;99.90;;;;;;5034585;28;20035;-69
2021/03/11 14:01:35;;;;;;;4.75;1.52;;;10.80;99.90;;;;;;5030634;28;20091;-68
2021/03/11 14:04:19;;;;;;;6.18;1.63;;;10.80;99.90;;;;;;5032477;28;20232;-69
2021/03/11 14:07:03;;;;;;;5.43;1.50;;;10.80;99.90;;;;;;5040208;28;20063;-69
2021/03/11 14:09:47;;;;;;;3.63;1.48;;;10.80;99.90;;;;;;5039955;28;20057;-69
2021/03/11 14:12:32;;;;;;;3.97;1.40;;;11.30;99.90;;;;;;5040342;28;20111;-69
2021/03/11 14:15:16;;;;;;;5.65;1.40;;;11.50;99.90;;;;;;5032117;28;20080;-69
2021/03/11 14:18:01;;;;;;;3.72;1.33;;;11.30;99.90;;;;;;5030541;28;20079;-69
2021/03/11 14:20:45;;;;;;;4.75;1.10;;;11.20;99.90;;;;;;5038527;28;20049;-69
2021/03/11 14:23:30;;;;;;;6.15;1.02;;;11.30;99.90;;;;;;5034259;28;20087;-69
2021/03/11 14:26:14;;;;;;;5.95;1.20;;;12.40;99.90;;;;;;5038200;28;20159;-69
2021/03/11 14:28:58;;;;;;;5.13;1.55;;;12.70;99.90;;;;;;5034257;28;20453;-69
2021/03/11 14:31:42;;;;;;;4.03;1.17;;;13.40;99.90;;;;;;5046285;28;20075;-69